VIDPVAJB

Guest
Details From VIDP - INDIRA GANDHI INTL
To VAJB - JABALPUR
Flight Number -
Tags generated
Created
Modified
Stats Distance 371 nm / 687 km
Max Altitude 35,000 ft / 10,668 m
Waypoints 5
Social Downloads 0
Likes 0
Share VATSIM

Download

Looking for another format? Having issues loading an existing format? Contact us
Advertisement - Login to hide

Notes

Basic altitude profile: - Ascent Rate: 2500ft/min - Ascent Speed: 250kts - Cruise Altitude: 35000ft - Cruise Speed: 420kts - Descent Rate: 1500ft/min - Descent Speed: 250kts Options: - Use NATs: yes - Use PACOTS: yes - Use low airways: no - Use high airways: yes

Route

VIDP AGG L759 KKJ VAJB

ID Type Via Altitude Latitude Longitude Leg Dist Tot Dist Heading (true) Name
O VIDP APT - 0 ft / 0 m 28.56650˚ 77.10309˚ - 0 nm - INDIRA GANDHI INTL
AGG VOR - 33,300 ft / 10,150 m 27.15075˚ 77.94753˚ 96 nm 96 nm 152° / 152° AGRA VOR-DME
NOBOM FIX L759 (AWY-HI) 35,000 ft / 10,668 m 26.15028˚ 78.81519˚ 76 nm 172 nm 142° / 142° -
KKJ VOR L759 (AWY-HI) 27,000 ft / 8,230 m 24.81487˚ 79.91868˚ 100 nm 272 nm 143° / 144° KHAJURAHO VOR-DME
O VAJB APT - 0 ft / 0 m 23.17783˚ 80.05205˚ 98 nm 370 nm 176° / 176° JABALPUR

Altitude Profile

Advertisement - Login to hide

Weather


0- 5 10 15 20 25 30 35+ Temperature / ° C

Clouds and Precipitation
Forecast for 2017-12-16 12:00 UTC. Updated 2 hours ago

Ground ~20,000 ft ~40,000 ft Winds

VIDP

Details ICAO VIDP (DEL)
Name INDIRA GANDHI INTL
Region India
Timezone Asia/Kolkata (UTC+5.5)
Stats Elevation 777 ft / 237 m (AMSL)
Location 28.566496° 77.103090°
Runways 2
Magnetic Variation 1.217° E

METAR

VIDP 160900Z 30010KT 1600 R28/2000 R29/2000 FU NSC 18/06 Q1021 NOSIG

Decode

TAF

TAF VIDP 160500Z 1606/1712 27007KT 1200 BR FU FEW100 BECMG 1610/1612 32008KT 2000 HZ SCT100 BECMG 1617/1619 26004KT 0800 MIFG NSC BECMG 1621/1622 0100 FG VV/// BECMG 1703/1704 09005KT 0600 MIFG FEW100 BECMG 1708/1710 32008KT 2000 HZ

Decode

Departure Runways

ID Width Length Bearing (true) Bearing (mag) Surface Threshold Offset Overrun Length
09 150 ft / 46 m 9,270 ft / 2,826 m 91.50° 90.28° Asphalt 0 ft / 0 m 195 ft / 59 m
10 150 ft / 46 m 12,488 ft / 3,807 m 104.67° 103.45° Asphalt 0 ft / 0 m 880 ft / 268 m
27 150 ft / 46 m 9,270 ft / 2,826 m 271.52° 270.30° Asphalt 499 ft / 152 m 0 ft / 0 m
28 150 ft / 46 m 12,488 ft / 3,807 m 284.69° 283.47° Asphalt 0 ft / 0 m 470 ft / 143 m

VAJB

Details ICAO VAJB (JLR)
Name JABALPUR
Region India
Timezone Asia/Kolkata (UTC+5.5)
Stats Elevation 1,624 ft / 495 m (AMSL)
Location 23.177826° 80.052048°
Runways 1
Magnetic Variation 0.175° E

METAR

VAJB 160900Z 36004KT 5000 HZ NSC 26/14 Q1019

Decode

TAF

Not found

Destination Runways

ID Width Length Bearing (true) Bearing (mag) Surface Threshold Offset Overrun Length
06 150 ft / 46 m 6,523 ft / 1,988 m 58.34° 58.17° Asphalt 0 ft / 0 m 197 ft / 60 m
24 150 ft / 46 m 6,523 ft / 1,988 m 238.35° 238.18° Asphalt 0 ft / 0 m 115 ft / 35 m

Popular Alternatives